createdAt,value
2022-08-05T00:00:50.357Z,100480.91
2022-08-05T00:06:04.935Z,100477.69
2022-08-05T00:11:20.537Z,100471.23
2022-08-05T00:16:35.548Z,100458.43
2022-08-05T00:21:39.412Z,100456.12
2022-08-05T00:26:50.705Z,100450.55
2022-08-05T00:32:10.996Z,100448.34
2022-08-05T00:37:17.347Z,100444.56
2022-08-05T00:42:32.112Z,100442.63
2022-08-05T00:47:57.404Z,100446.18
2022-08-05T00:52:58.623Z,100445.30
2022-08-05T00:58:01.614Z,100437.48
2022-08-05T01:03:08.123Z,100437.30
2022-08-05T01:08:30.267Z,100433.72
2022-08-05T01:13:57.997Z,100436.10
2022-08-05T01:19:30.430Z,100436.88
2022-08-05T01:24:52.128Z,100438.11
2022-08-05T01:30:02.217Z,100434.31
2022-08-05T01:35:11.396Z,100428.31
2022-08-05T01:40:35.061Z,100429.73
2022-08-05T01:45:43.002Z,100420.81
2022-08-05T01:50:51.143Z,100422.14
2022-08-05T01:55:58.936Z,100413.95
2022-08-05T02:01:08.086Z,100410.98
2022-08-05T02:06:33.799Z,100407.05
2022-08-05T02:11:48.133Z,100408.97
2022-08-05T02:16:58.366Z,100409.86
2022-08-05T02:22:25.875Z,100409.00
2022-08-05T02:27:59.810Z,100405.13
2022-08-05T02:33:00.342Z,100400.79
2022-08-05T02:38:05.264Z,100400.50
2022-08-05T02:43:14.273Z,100397.74
2022-08-05T02:48:19.787Z,100395.46
2022-08-05T02:53:39.005Z,100391.52
2022-08-05T02:58:44.062Z,100390.21
2022-08-05T03:04:02.613Z,100385.23
2022-08-05T03:09:07.711Z,100382.55
2022-08-05T03:14:13.306Z,100381.50
2022-08-05T03:19:32.964Z,100380.09
2022-08-05T03:24:37.681Z,100381.11
2022-08-05T03:29:45.343Z,100381.80
2022-08-05T03:35:04.563Z,100381.61
2022-08-05T03:40:12.062Z,100382.04
2022-08-05T03:45:21.363Z,100390.35
2022-08-05T03:50:33.871Z,100386.33
2022-08-05T03:56:05.719Z,100388.95
2022-08-05T04:01:11.242Z,100391.04
2022-08-05T04:06:18.097Z,100388.67
2022-08-05T04:11:23.592Z,100389.23
2022-08-05T04:16:45.723Z,100392.54
2022-08-05T04:22:08.236Z,100388.44
2022-08-05T04:27:15.320Z,100391.86
2022-08-05T04:32:30.670Z,100388.20
2022-08-05T04:38:02.285Z,100390.19
2022-08-05T04:42:57.759Z,100387.59
2022-08-05T04:48:04.891Z,100386.23
2022-08-05T04:53:09.295Z,100379.44
2022-08-05T04:58:14.951Z,100378.39
2022-08-05T05:03:24.466Z,100374.98
2022-08-05T05:08:30.080Z,100379.59
2022-08-05T05:13:43.004Z,100378.66
2022-08-05T05:19:08.854Z,100383.37
2022-08-05T05:24:09.352Z,100383.73
2022-08-05T05:29:14.380Z,100382.09
2022-08-05T05:34:22.537Z,100382.52
2022-08-05T05:39:31.680Z,100387.50
2022-08-05T05:44:45.899Z,100384.55
2022-08-05T05:49:52.514Z,100380.65
2022-08-05T05:55:01.119Z,100379.49
2022-08-05T06:00:10.413Z,100376.86
2022-08-05T06:05:16.779Z,100377.95
2022-08-05T06:10:19.957Z,100379.73
2022-08-05T06:16:27.592Z,100383.51
2022-08-05T06:20:49.231Z,100372.94
2022-08-05T06:26:13.927Z,100368.19
2022-08-05T06:31:30.436Z,100367.94
2022-08-05T06:36:53.498Z,100368.98
2022-08-05T06:41:59.154Z,100368.11
2022-08-05T06:47:02.243Z,100367.20
2022-08-05T06:52:05.743Z,100366.38
2022-08-05T06:57:57.836Z,100360.85
2022-08-05T07:02:32.365Z,100356.45
2022-08-05T07:07:43.901Z,100355.23
2022-08-05T07:13:05.693Z,100354.33
2022-08-05T07:18:10.323Z,100352.86
2022-08-05T07:23:26.082Z,100357.11
2022-08-05T07:28:29.581Z,100353.67
2022-08-05T07:33:36.420Z,100349.85
2022-08-05T07:38:42.797Z,100348.04
2022-08-05T07:43:47.746Z,100343.14
2022-08-05T07:49:02.069Z,100341.41
2022-08-05T07:54:10.113Z,100340.38
2022-08-05T07:59:13.160Z,100342.88
2022-08-05T08:04:17.269Z,100344.52
2022-08-05T08:09:37.435Z,100344.45
2022-08-05T08:14:46.857Z,100342.72
2022-08-05T08:20:42.778Z,100341.44
2022-08-05T08:25:16.332Z,100336.61
2022-08-05T08:30:33.971Z,100329.85
2022-08-05T08:35:53.832Z,100333.48
2022-08-05T08:41:08.726Z,100325.56
2022-08-05T08:46:16.164Z,100325.64
2022-08-05T08:52:01.987Z,100320.57
2022-08-05T08:56:47.383Z,100310.21
2022-08-05T09:01:57.301Z,100308.05
2022-08-05T09:07:10.649Z,100304.27
2022-08-05T09:12:27.417Z,100302.21
2022-08-05T09:17:41.106Z,100299.05
2022-08-05T09:23:05.575Z,100295.68
2022-08-05T09:28:23.503Z,100296.08
2022-08-05T09:33:35.218Z,100290.54
2022-08-05T09:38:38.110Z,100291.36
2022-08-05T09:43:42.302Z,100284.63
2022-08-05T09:49:07.039Z,100282.90
2022-08-05T09:54:09.512Z,100271.11
2022-08-05T09:59:17.030Z,100272.24
2022-08-05T10:04:28.683Z,100270.10
2022-08-05T10:09:44.853Z,100265.69
2022-08-05T10:14:48.234Z,100255.99
2022-08-05T10:20:04.041Z,100254.52
2022-08-05T10:25:14.350Z,100251.35
2022-08-05T10:31:19.959Z,100247.91
2022-08-05T10:35:44.239Z,100243.92
2022-08-05T10:40:58.167Z,100234.72
2022-08-05T10:46:10.489Z,100229.77
2022-08-05T10:51:22.475Z,100227.50
2022-08-05T10:56:26.139Z,100228.21
2022-08-05T11:01:55.336Z,100227.09
2022-08-05T11:07:06.766Z,100216.41
2022-08-05T11:12:24.682Z,100214.81
2022-08-05T11:18:00.087Z,100208.27
2022-08-05T11:22:54.009Z,100203.71
2022-08-05T11:28:11.657Z,100198.91
2022-08-05T11:33:43.986Z,100196.35
2022-08-05T11:38:51.760Z,100194.91
2022-08-05T11:44:05.902Z,100183.23
2022-08-05T11:49:16.297Z,100178.98
2022-08-05T11:54:33.633Z,100177.94
2022-08-05T11:59:49.814Z,100172.05
2022-08-05T12:04:59.528Z,100178.46
2022-08-05T12:10:09.089Z,100172.84
2022-08-05T12:15:37.939Z,100172.05
2022-08-05T12:20:41.584Z,100169.59
2022-08-05T12:25:56.796Z,100164.98
2022-08-05T12:31:01.955Z,100157.08
2022-08-05T12:36:07.880Z,100147.73
2022-08-05T12:41:16.346Z,100136.77
2022-08-05T12:46:31.426Z,100140.61
2022-08-05T12:52:14.355Z,100150.85
2022-08-05T12:57:15.448Z,100148.66
2022-08-05T13:02:30.410Z,100147.64
2022-08-05T13:07:59.253Z,100148.52
2022-08-05T13:12:58.462Z,100139.84
2022-08-05T13:18:02.085Z,100133.39
2022-08-05T13:23:07.340Z,100127.81
2022-08-05T13:28:10.603Z,100123.55
2022-08-05T13:33:14.218Z,100117.21
2022-08-05T13:38:28.307Z,100115.79
2022-08-05T13:43:45.723Z,100112.71
2022-08-05T13:49:00.734Z,100100.30
2022-08-05T13:54:12.579Z,100089.34
2022-08-05T13:59:19.471Z,100091.38
2022-08-05T14:04:42.358Z,100086.59
2022-08-05T14:09:46.364Z,100081.41
2022-08-05T14:14:49.816Z,100079.29
2022-08-05T14:20:00.851Z,100080.45
2022-08-05T14:25:21.408Z,100075.79
2022-08-05T14:30:28.172Z,100069.02
2022-08-05T14:35:36.916Z,100066.71
2022-08-05T14:40:54.293Z,100065.43
2022-08-05T14:45:56.984Z,100067.63
2022-08-05T14:50:59.679Z,100064.77
2022-08-05T14:56:06.043Z,100062.48
2022-08-05T15:01:11.195Z,100062.21
2022-08-05T15:06:19.065Z,100063.96
2022-08-05T15:11:51.651Z,100060.84
2022-08-05T15:16:56.446Z,100066.09
2022-08-05T15:22:01.278Z,100058.44
2022-08-05T15:27:04.471Z,100060.11
2022-08-05T15:32:12.043Z,100054.71
2022-08-05T15:37:19.375Z,100044.27
2022-08-05T15:42:54.748Z,100039.10
2022-08-05T15:47:59.737Z,100041.75
2022-08-05T15:53:05.770Z,100046.75
2022-08-05T15:58:16.503Z,100043.98
2022-08-05T16:03:19.818Z,100049.29
2022-08-05T16:08:23.984Z,100052.55
2022-08-05T16:13:34.498Z,100058.63
2022-08-05T16:18:52.268Z,100050.49
2022-08-05T16:23:58.040Z,100048.31
2022-08-05T16:29:04.365Z,100040.88
2022-08-05T16:34:11.120Z,100037.36
2022-08-05T16:39:14.284Z,100031.42
2022-08-05T16:44:18.262Z,100027.73
2022-08-05T16:49:23.875Z,100024.98
2022-08-05T16:54:31.913Z,100023.17
2022-08-05T16:59:35.895Z,100020.23
2022-08-05T17:04:58.659Z,100012.39
2022-08-05T17:10:01.416Z,100013.05
2022-08-05T17:15:07.492Z,100010.73
2022-08-05T17:20:14.568Z,100003.45
2022-08-05T17:25:22.192Z,100004.77
2022-08-05T17:30:42.501Z,100001.03
2022-08-05T17:36:07.423Z,100001.98
2022-08-05T17:42:16.822Z,99998.95
2022-08-05T17:46:35.905Z,99996.83
2022-08-05T17:51:40.119Z,100001.72
2022-08-05T17:56:44.657Z,100002.78
2022-08-05T18:01:51.790Z,100005.91
2022-08-05T18:06:54.765Z,100009.14
2022-08-05T18:12:03.617Z,100010.58
2022-08-05T18:17:06.982Z,100016.20
2022-08-05T18:22:36.188Z,100020.83
2022-08-05T18:27:52.255Z,100027.39
2022-08-05T18:33:00.770Z,100026.25
2022-08-05T18:38:03.992Z,100034.00
2022-08-05T18:43:09.133Z,100031.73
2022-08-05T18:48:31.619Z,100038.27
2022-08-05T18:53:45.950Z,100036.19
2022-08-05T18:58:55.002Z,100036.23
2022-08-05T19:04:05.498Z,100030.39
2022-08-05T19:09:08.333Z,100034.78
2022-08-05T19:14:59.449Z,100027.36
2022-08-05T19:19:33.741Z,100028.23
2022-08-05T19:24:36.974Z,100025.81
2022-08-05T19:29:58.336Z,100031.19
2022-08-05T19:35:06.408Z,100026.76
2022-08-05T19:40:10.813Z,100023.18
2022-08-05T19:45:14.578Z,100028.55
2022-08-05T19:50:17.495Z,100025.86
2022-08-05T19:56:14.237Z,100027.03
2022-08-05T20:00:43.148Z,100033.92
2022-08-05T20:05:51.478Z,100027.56
2022-08-05T20:10:55.231Z,100029.73
2022-08-05T20:15:58.033Z,100024.27
2022-08-05T20:21:04.505Z,100022.05
2022-08-05T20:26:16.474Z,100019.73
2022-08-05T20:31:22.868Z,100026.37
2022-08-05T20:36:31.328Z,100035.08
2022-08-05T20:41:44.439Z,100046.45
2022-08-05T20:46:48.186Z,100048.59
2022-08-05T20:51:54.222Z,100049.94
2022-08-05T20:56:57.979Z,100047.17
2022-08-05T21:02:00.717Z,100051.98
2022-08-05T21:07:04.600Z,100049.85
2022-08-05T21:12:11.611Z,100049.48
2022-08-05T21:17:15.389Z,100050.16
2022-08-05T21:22:21.763Z,100049.17
2022-08-05T21:27:27.419Z,100049.50
2022-08-05T21:32:30.540Z,100051.89
2022-08-05T21:37:35.049Z,100057.43
2022-08-05T21:42:45.149Z,100060.77
2022-08-05T21:47:57.208Z,100082.85
2022-08-05T21:53:08.409Z,100102.88
2022-08-05T21:58:20.648Z,100102.00
2022-08-05T22:03:52.185Z,100104.44
2022-08-05T22:08:56.242Z,100114.33
2022-08-05T22:14:05.829Z,100118.48
2022-08-05T22:20:01.116Z,100114.13
2022-08-05T22:25:04.132Z,100115.23
2022-08-05T22:30:13.973Z,100129.41
2022-08-05T22:35:16.724Z,100153.30
2022-08-05T22:40:20.409Z,100154.15
2022-08-05T22:45:26.260Z,100161.45
2022-08-05T22:50:29.010Z,100153.76
2022-08-05T22:55:56.748Z,100139.12
2022-08-05T23:00:54.676Z,100151.32
2022-08-05T23:05:59.981Z,100162.71
2022-08-05T23:11:04.098Z,100165.14
2022-08-05T23:16:06.967Z,100136.05
2022-08-05T23:21:11.102Z,100144.33
2022-08-05T23:26:20.089Z,100144.64
2022-08-05T23:31:24.434Z,100145.77
2022-08-05T23:36:28.318Z,100170.33
2022-08-05T23:41:41.167Z,100195.99
2022-08-05T23:46:51.775Z,100200.88
2022-08-05T23:52:13.051Z,100211.06
2022-08-05T23:57:19.477Z,100209.73
